Time;durP1;ratioP1;P1;durP2;ratioP2;P2;SDS_P1;SDS_P2;PMS_P1;PMS_P2;Temp;Humidity;BMP_temperature;BMP_pressure;BME280_temperature;BME280_humidity;BME280_pressure;Samples;Min_cycle;Max_cycle;Signal;HPM_P1;HPM_P2
2022/04/15 00:00:01;;;;;;;0.50;0.40;;;9.60;99.90;;;;;;5009816;28;20222;-79
2022/04/15 00:02:28;;;;;;;0.50;0.40;;;9.60;99.90;;;;;;5012025;28;20202;-78
2022/04/15 00:04:56;;;;;;;0.50;0.40;;;9.60;99.90;;;;;;5012106;28;20225;-78
2022/04/15 00:07:23;;;;;;;0.50;0.50;;;9.60;99.90;;;;;;5012189;28;20203;-79
2022/04/15 00:09:50;;;;;;;0.50;0.40;;;9.60;99.90;;;;;;5011188;28;20202;-78
2022/04/15 00:12:27;;;;;;;0.50;0.40;;;9.50;99.90;;;;;;5011778;28;20288;-78
2022/04/15 00:14:54;;;;;;;0.50;0.40;;;9.50;99.90;;;;;;5012520;28;20281;-79
2022/04/15 00:17:22;;;;;;;1.77;1.58;;;9.40;99.90;;;;;;5012134;28;20569;-78
2022/04/15 00:19:49;;;;;;;0.50;0.40;;;9.40;99.90;;;;;;5011466;28;20699;-78
2022/04/15 00:22:17;;;;;;;0.50;0.40;;;9.40;99.90;;;;;;5012252;28;20203;-79
2022/04/15 00:24:44;;;;;;;0.50;0.40;;;9.40;99.90;;;;;;5012108;28;20292;-79
2022/04/15 00:27:11;;;;;;;0.50;0.40;;;9.40;99.90;;;;;;5013121;28;20212;-75
2022/04/15 00:29:38;;;;;;;0.50;0.40;;;9.30;99.90;;;;;;5012227;28;20205;-78
2022/04/15 00:32:05;;;;;;;0.50;0.40;;;9.30;99.90;;;;;;5012931;28;20250;-80
2022/04/15 00:34:34;;;;;;;0.50;0.40;;;9.30;99.90;;;;;;5013007;28;20221;-78
2022/04/15 00:37:00;;;;;;;0.50;0.40;;;9.30;99.90;;;;;;5012819;28;20235;-78
2022/04/15 00:39:27;;;;;;;0.50;0.40;;;9.40;99.90;;;;;;5011928;28;20676;-78
2022/04/15 00:41:54;;;;;;;0.50;0.40;;;9.30;99.90;;;;;;5013049;28;20203;-78
2022/04/15 00:44:21;;;;;;;0.50;0.40;;;9.30;99.90;;;;;;5012783;28;20225;-77
2022/04/15 00:46:47;;;;;;;0.50;0.40;;;9.20;99.90;;;;;;5013084;28;20202;-79
2022/04/15 00:49:14;;;;;;;0.50;0.40;;;9.10;99.90;;;;;;5012533;28;20202;-76
2022/04/15 00:51:44;;;;;;;0.50;0.40;;;9.10;99.90;;;;;;5013360;28;20202;-77
2022/04/15 00:54:12;;;;;;;0.50;0.40;;;9.00;99.90;;;;;;5013325;28;20232;-79
2022/04/15 00:56:41;;;;;;;0.50;0.40;;;8.90;99.90;;;;;;5012047;28;20212;-76
2022/04/15 00:59:10;;;;;;;0.50;0.40;;;8.90;99.90;;;;;;5011798;28;20203;-79
2022/04/15 01:01:40;;;;;;;0.50;0.40;;;8.90;99.90;;;;;;5012599;28;20218;-79
2022/04/15 01:04:08;;;;;;;0.50;0.40;;;9.00;99.90;;;;;;5012110;28;20218;-76
2022/04/15 01:06:37;;;;;;;0.50;0.40;;;8.90;99.90;;;;;;5012453;28;20597;-79
2022/04/15 01:09:06;;;;;;;0.50;0.40;;;8.90;99.90;;;;;;5012064;28;20210;-79
2022/04/15 01:11:34;;;;;;;0.50;0.40;;;8.90;99.90;;;;;;5014399;28;20683;-78
2022/04/15 01:14:02;;;;;;;0.50;0.50;;;8.90;99.90;;;;;;5016379;28;20276;-79
2022/04/15 01:16:30;;;;;;;0.50;0.40;;;8.80;99.90;;;;;;5016191;28;20203;-77
2022/04/15 01:18:57;;;;;;;0.50;0.40;;;8.80;99.90;;;;;;5015950;28;20202;-78
2022/04/15 01:21:26;;;;;;;0.50;0.40;;;8.80;99.90;;;;;;5016393;28;20217;-77
2022/04/15 01:23:55;;;;;;;1.63;1.52;;;8.70;99.90;;;;;;5015991;28;20252;-79
2022/04/15 01:26:21;;;;;;;0.50;0.40;;;8.70;99.90;;;;;;5016846;28;20197;-79
2022/04/15 01:28:48;;;;;;;0.50;0.40;;;8.60;99.90;;;;;;5016067;28;20208;-77
2022/04/15 01:31:15;;;;;;;0.50;0.40;;;8.60;99.90;;;;;;5016289;28;20201;-79
2022/04/15 01:33:42;;;;;;;0.50;0.40;;;8.60;99.90;;;;;;5016471;28;20225;-78
2022/04/15 01:36:08;;;;;;;0.50;0.40;;;8.60;99.90;;;;;;5014635;28;20210;-78
2022/04/15 01:38:36;;;;;;;1.30;1.20;;;8.60;99.90;;;;;;5013697;28;20700;-79
2022/04/15 01:41:04;;;;;;;0.50;0.40;;;8.60;99.90;;;;;;5013523;28;20691;-78
2022/04/15 01:43:31;;;;;;;0.50;0.40;;;8.50;99.90;;;;;;5013929;28;20222;-79
2022/04/15 01:45:58;;;;;;;0.50;0.40;;;8.50;99.90;;;;;;5084286;23;20224;-76
2022/04/15 01:48:24;;;;;;;0.50;0.40;;;8.40;99.90;;;;;;5082400;28;20202;-76
2022/04/15 01:50:51;;;;;;;0.50;0.40;;;8.40;99.90;;;;;;5072855;28;20208;-77
2022/04/15 01:53:18;;;;;;;0.50;0.40;;;8.40;99.90;;;;;;5073765;28;20198;-77
2022/04/15 01:55:45;;;;;;;0.50;0.40;;;8.40;99.90;;;;;;5072962;28;20713;-77
2022/04/15 01:58:13;;;;;;;0.50;0.40;;;8.50;99.90;;;;;;5073889;28;20203;-77
2022/04/15 02:00:39;;;;;;;0.50;0.40;;;8.40;99.90;;;;;;5071353;28;20210;-76
2022/04/15 02:03:06;;;;;;;0.50;0.40;;;8.40;99.90;;;;;;5073334;28;20595;-77
2022/04/15 02:05:33;;;;;;;0.50;0.40;;;8.30;99.90;;;;;;5073625;28;20212;-76
2022/04/15 02:08:00;;;;;;;0.50;0.40;;;8.30;99.90;;;;;;5073409;28;20602;-76
2022/04/15 02:10:26;;;;;;;0.50;0.40;;;8.30;99.90;;;;;;5072895;28;20195;-77
2022/04/15 02:12:53;;;;;;;0.50;0.40;;;8.30;99.90;;;;;;5073182;28;20204;-76
2022/04/15 02:15:21;;;;;;;0.50;0.40;;;8.20;99.90;;;;;;5072859;28;20225;-77
2022/04/15 02:17:48;;;;;;;0.50;0.40;;;8.20;99.90;;;;;;5073584;28;20203;-76
2022/04/15 02:20:15;;;;;;;0.50;0.40;;;8.20;99.90;;;;;;5072170;28;20196;-77
2022/04/15 02:22:41;;;;;;;0.50;0.40;;;8.20;99.90;;;;;;5071884;28;20846;-76
2022/04/15 02:25:09;;;;;;;0.50;0.40;;;8.20;99.90;;;;;;5072579;28;20222;-74
2022/04/15 02:27:36;;;;;;;0.50;0.40;;;8.10;99.90;;;;;;5072843;28;20697;-77
2022/04/15 02:30:03;;;;;;;0.50;0.40;;;8.10;99.90;;;;;;5072363;28;20223;-75
2022/04/15 02:32:31;;;;;;;0.50;0.40;;;8.10;99.90;;;;;;5072762;28;20198;-75
2022/04/15 02:34:58;;;;;;;0.50;0.40;;;8.10;99.90;;;;;;5072766;28;20226;-76
2022/04/15 02:37:25;;;;;;;0.50;0.40;;;8.00;99.90;;;;;;5072203;28;20199;-75
2022/04/15 02:39:52;;;;;;;0.50;0.40;;;8.00;99.90;;;;;;5072277;28;20192;-74
2022/04/15 02:42:19;;;;;;;0.50;0.40;;;7.90;99.90;;;;;;5072800;28;20215;-74
2022/04/15 02:44:46;;;;;;;0.50;0.40;;;7.90;99.90;;;;;;5072303;28;20202;-74
2022/04/15 02:47:13;;;;;;;0.50;0.40;;;7.90;99.90;;;;;;5072578;28;20213;-74
2022/04/15 02:49:41;;;;;;;0.50;0.40;;;7.90;99.90;;;;;;5071647;28;20201;-74
2022/04/15 02:52:08;;;;;;;0.50;0.40;;;7.90;99.90;;;;;;5073175;28;20192;-75
2022/04/15 02:54:35;;;;;;;0.50;0.40;;;7.80;99.90;;;;;;5072428;28;20195;-75
2022/04/15 02:57:03;;;;;;;0.50;0.40;;;7.80;99.90;;;;;;5072545;28;20207;-75
2022/04/15 02:59:30;;;;;;;0.50;0.40;;;7.80;99.90;;;;;;5071354;28;20204;-74
2022/04/15 03:01:57;;;;;;;0.50;0.40;;;7.80;99.90;;;;;;5072191;28;20209;-74
2022/04/15 03:04:24;;;;;;;0.50;0.40;;;7.80;99.90;;;;;;5072018;28;20203;-74
2022/04/15 03:06:52;;;;;;;0.50;0.40;;;7.80;99.90;;;;;;5072429;28;20246;-74
2022/04/15 03:09:19;;;;;;;0.50;0.40;;;7.80;99.90;;;;;;5071196;28;20198;-74
2022/04/15 03:11:46;;;;;;;0.50;0.40;;;7.80;99.90;;;;;;5072183;28;20190;-74
2022/04/15 03:14:13;;;;;;;0.50;0.40;;;7.80;99.90;;;;;;5071611;28;20197;-75
2022/04/15 03:16:39;;;;;;;0.50;0.40;;;7.80;99.90;;;;;;5072202;28;20245;-74
2022/04/15 03:19:06;;;;;;;0.50;0.40;;;7.90;99.90;;;;;;5071312;28;20194;-74
2022/04/15 03:21:35;;;;;;;0.50;0.40;;;7.90;99.90;;;;;;5071586;28;20210;-74
2022/04/15 03:24:04;;;;;;;0.50;0.40;;;7.80;99.90;;;;;;5072035;28;20202;-74
2022/04/15 03:26:30;;;;;;;0.50;0.40;;;7.70;99.90;;;;;;5071789;28;20221;-71
2022/04/15 03:28:57;;;;;;;0.50;0.40;;;7.60;99.90;;;;;;5070923;28;20201;-72
2022/04/15 03:31:24;;;;;;;0.50;0.40;;;7.60;99.90;;;;;;5071580;28;20194;-75
2022/04/15 03:33:51;;;;;;;0.50;0.40;;;7.60;99.90;;;;;;5071824;28;20309;-74
2022/04/15 03:36:18;;;;;;;0.50;0.40;;;7.50;99.90;;;;;;5071515;28;20214;-74
2022/04/15 03:38:45;;;;;;;0.50;0.40;;;7.40;99.90;;;;;;5071565;28;20193;-72
2022/04/15 03:41:13;;;;;;;0.50;0.40;;;7.40;99.90;;;;;;5071116;28;20209;-74
2022/04/15 03:43:40;;;;;;;0.50;0.40;;;7.40;99.90;;;;;;5071437;28;20671;-71
2022/04/15 03:46:07;;;;;;;0.50;0.40;;;7.30;99.90;;;;;;5070783;28;20322;-74
2022/04/15 03:48:34;;;;;;;0.50;0.40;;;7.40;99.90;;;;;;5071866;28;20202;-70
2022/04/15 03:51:00;;;;;;;0.50;0.40;;;7.50;99.90;;;;;;5070461;28;20216;-75
2022/04/15 03:53:27;;;;;;;0.50;0.40;;;7.50;99.90;;;;;;5071676;28;20206;-74
2022/04/15 03:55:54;;;;;;;0.50;0.40;;;7.50;99.90;;;;;;5071298;28;20222;-75
2022/04/15 03:58:22;;;;;;;0.50;0.40;;;7.40;99.90;;;;;;5071809;28;20194;-75
2022/04/15 04:00:48;;;;;;;0.50;0.40;;;7.40;99.90;;;;;;5070629;28;20207;-74
2022/04/15 04:03:15;;;;;;;0.50;0.40;;;7.40;99.90;;;;;;5071640;28;20201;-74
2022/04/15 04:05:42;;;;;;;0.50;0.40;;;7.40;99.90;;;;;;5070954;28;20214;-72
2022/04/15 04:08:09;;;;;;;0.50;0.30;;;7.30;99.90;;;;;;5071396;28;20194;-74
2022/04/15 04:10:35;;;;;;;0.50;0.40;;;7.30;99.90;;;;;;5070666;28;20195;-74
2022/04/15 04:13:02;;;;;;;0.50;0.40;;;7.30;99.90;;;;;;5071575;28;20191;-74
2022/04/15 04:15:31;;;;;;;0.50;0.40;;;7.30;99.90;;;;;;5071124;28;20645;-71
2022/04/15 04:17:58;;;;;;;0.50;0.40;;;7.20;99.90;;;;;;5071192;28;20209;-74
2022/04/15 04:20:25;;;;;;;0.50;0.40;;;7.20;99.90;;;;;;5070612;28;20197;-74
2022/04/15 04:22:52;;;;;;;0.50;0.40;;;7.10;99.90;;;;;;5070991;28;20215;-74
2022/04/15 04:25:19;;;;;;;0.50;0.40;;;7.10;99.90;;;;;;5071164;28;20708;-74
2022/04/15 04:27:46;;;;;;;0.50;0.40;;;7.10;99.90;;;;;;5070466;28;20202;-75
2022/04/15 04:30:14;;;;;;;0.50;0.40;;;7.10;99.90;;;;;;5070459;28;20192;-75
2022/04/15 04:32:49;;;;;;;0.50;0.40;;;7.10;99.90;;;;;;5070838;28;20198;-70
2022/04/15 04:35:16;;;;;;;0.50;0.40;;;7.10;99.90;;;;;;5071228;28;20213;-74
2022/04/15 04:37:43;;;;;;;0.50;0.40;;;7.10;99.90;;;;;;5070697;28;20193;-75
2022/04/15 04:40:10;;;;;;;0.50;0.40;;;7.10;99.90;;;;;;5070318;28;20194;-75
2022/04/15 04:42:37;;;;;;;0.50;0.40;;;7.10;99.90;;;;;;5070749;28;20214;-75
2022/04/15 04:45:05;;;;;;;0.50;0.40;;;7.00;99.90;;;;;;5070798;28;20234;-75
2022/04/15 04:47:32;;;;;;;0.50;0.40;;;7.10;99.90;;;;;;5072069;28;20198;-74
2022/04/15 04:50:01;;;;;;;0.50;0.40;;;7.10;99.90;;;;;;5074597;28;20198;-74
2022/04/15 04:52:28;;;;;;;1.02;1.02;;;7.20;99.90;;;;;;5074259;28;20200;-74
2022/04/15 04:54:54;;;;;;;0.70;0.70;;;7.30;99.90;;;;;;5074526;28;20225;-74
2022/04/15 04:57:21;;;;;;;0.50;0.40;;;7.40;99.90;;;;;;5074809;28;20268;-74
2022/04/15 04:59:48;;;;;;;0.50;0.40;;;7.50;99.90;;;;;;5074188;28;20194;-75
2022/04/15 05:02:14;;;;;;;0.50;0.40;;;7.60;99.90;;;;;;5074189;28;20218;-74
2022/04/15 05:04:41;;;;;;;0.50;0.40;;;7.70;99.90;;;;;;5074538;28;20206;-74
2022/04/15 05:07:09;;;;;;;0.50;0.50;;;7.80;99.90;;;;;;5074801;28;20198;-74
2022/04/15 05:09:41;;;;;;;0.80;0.80;;;7.90;99.90;;;;;;5073832;28;20205;-73
2022/04/15 05:12:09;;;;;;;0.60;0.60;;;7.90;99.90;;;;;;5074591;28;20622;-74
2022/04/15 05:14:35;;;;;;;0.50;0.40;;;7.90;99.90;;;;;;5073840;28;20197;-74
2022/04/15 05:17:02;;;;;;;6.05;2.78;;;7.90;99.90;;;;;;5074622;28;20613;-74
2022/04/15 05:19:29;;;;;;;0.50;0.40;;;7.90;99.90;;;;;;5073521;28;20667;-75
2022/04/15 05:21:56;;;;;;;7.72;2.80;;;8.00;99.90;;;;;;5074216;28;20214;-74
2022/04/15 05:24:24;;;;;;;0.60;0.50;;;7.90;99.90;;;;;;5073914;28;20197;-74
2022/04/15 05:26:50;;;;;;;0.50;0.40;;;8.00;99.90;;;;;;5074050;28;20218;-74
2022/04/15 05:29:17;;;;;;;1.45;1.35;;;7.90;99.90;;;;;;5073496;28;20198;-74
2022/04/15 05:31:44;;;;;;;1.02;0.60;;;7.90;99.90;;;;;;5074125;28;20186;-75
2022/04/15 05:34:10;;;;;;;0.50;0.40;;;7.90;99.90;;;;;;5074013;28;20202;-73
2022/04/15 05:36:37;;;;;;;1.00;0.93;;;7.90;99.90;;;;;;5074049;28;20211;-74
2022/04/15 05:39:04;;;;;;;3.75;1.52;;;7.80;99.90;;;;;;5072921;28;20595;-74
2022/04/15 05:41:32;;;;;;;0.50;0.40;;;7.70;99.90;;;;;;5073677;28;20215;-74
2022/04/15 05:43:58;;;;;;;0.50;0.50;;;7.70;99.90;;;;;;5074039;28;20198;-75
2022/04/15 05:46:27;;;;;;;0.50;0.40;;;7.70;99.90;;;;;;5073503;28;20233;-75
2022/04/15 05:48:53;;;;;;;0.50;0.40;;;7.70;99.90;;;;;;5073775;28;20198;-74
2022/04/15 05:51:20;;;;;;;0.60;0.60;;;7.70;99.90;;;;;;5073342;28;20682;-74
2022/04/15 05:53:47;;;;;;;0.50;0.40;;;7.80;99.90;;;;;;5073348;28;20191;-73
2022/04/15 05:56:13;;;;;;;0.50;0.40;;;7.80;99.90;;;;;;5071781;28;20237;-74
2022/04/15 05:58:41;;;;;;;0.50;0.40;;;7.80;99.90;;;;;;5075741;28;20190;-75
2022/04/15 06:01:09;;;;;;;0.50;0.40;;;7.80;99.90;;;;;;5072580;28;20194;-74
2022/04/15 06:03:37;;;;;;;0.50;0.40;;;7.90;99.90;;;;;;5079394;28;20230;-75
2022/04/15 06:06:04;;;;;;;0.50;0.40;;;7.90;99.90;;;;;;5089686;28;20216;-75
2022/04/15 06:08:31;;;;;;;0.50;0.40;;;7.90;99.90;;;;;;5093659;28;20194;-74
2022/04/15 06:10:58;;;;;;;0.80;0.80;;;8.00;99.90;;;;;;5093220;28;20209;-74
2022/04/15 06:13:25;;;;;;;0.50;0.40;;;8.10;99.90;;;;;;5093858;28;20196;-74
2022/04/15 06:15:55;;;;;;;1.55;1.45;;;8.20;99.90;;;;;;5093121;28;20213;-74
2022/04/15 06:18:23;;;;;;;0.50;0.40;;;8.30;99.90;;;;;;5093832;28;20203;-75
2022/04/15 06:20:51;;;;;;;1.25;1.25;;;8.50;99.90;;;;;;5092494;28;20191;-75
2022/04/15 06:23:18;;;;;;;0.85;0.85;;;8.70;99.90;;;;;;5093418;28;20237;-75
2022/04/15 06:25:46;;;;;;;5.47;2.80;;;8.80;99.90;;;;;;5093030;28;20213;-75
2022/04/15 06:28:13;;;;;;;1.33;1.25;;;8.60;99.90;;;;;;5092758;28;20201;-74
2022/04/15 06:30:40;;;;;;;0.65;0.65;;;8.50;99.90;;;;;;5091972;28;20205;-75
2022/04/15 06:33:09;;;;;;;0.50;0.40;;;8.50;99.90;;;;;;5093854;28;20196;-75
2022/04/15 06:35:35;;;;;;;0.50;0.40;;;8.60;99.90;;;;;;5092982;28;20696;-74
2022/04/15 06:38:03;;;;;;;0.50;0.40;;;8.70;99.90;;;;;;5093321;28;20232;-75
2022/04/15 06:40:29;;;;;;;0.50;0.40;;;8.90;99.90;;;;;;5092212;28;20202;-75
2022/04/15 06:42:56;;;;;;;1.48;1.38;;;9.00;99.90;;;;;;5092541;28;20215;-75
2022/04/15 06:45:23;;;;;;;0.50;0.40;;;9.00;99.90;;;;;;5092464;28;20236;-74
2022/04/15 06:47:49;;;;;;;0.50;0.40;;;9.00;99.90;;;;;;5092704;28;20597;-75
2022/04/15 06:50:19;;;;;;;0.50;0.40;;;9.00;99.90;;;;;;5091598;28;20206;-75
2022/04/15 06:52:45;;;;;;;0.50;0.40;;;9.20;99.90;;;;;;5092572;28;20232;-74
2022/04/15 06:55:12;;;;;;;0.50;0.40;;;9.00;99.90;;;;;;5092408;28;20217;-74
2022/04/15 06:57:39;;;;;;;0.50;0.40;;;9.10;99.90;;;;;;5092243;28;20573;-75
2022/04/15 07:00:08;;;;;;;0.50;0.40;;;9.10;99.90;;;;;;5091925;28;20203;-75
2022/04/15 07:02:35;;;;;;;0.50;0.40;;;9.20;99.90;;;;;;5092539;28;20247;-75
2022/04/15 07:05:02;;;;;;;0.50;0.40;;;9.40;99.90;;;;;;5092605;28;20253;-75
2022/04/15 07:07:31;;;;;;;0.50;0.40;;;9.50;99.90;;;;;;5090171;28;20198;-75
2022/04/15 07:09:58;;;;;;;0.50;0.40;;;9.60;99.90;;;;;;5091100;28;20207;-75
2022/04/15 07:12:24;;;;;;;0.50;0.40;;;9.80;99.90;;;;;;5092227;28;20191;-75
2022/04/15 07:14:52;;;;;;;1.45;0.90;;;10.00;99.90;;;;;;5092450;28;20224;-75
2022/04/15 07:17:18;;;;;;;0.50;0.40;;;10.10;99.90;;;;;;5092661;28;20196;-75
2022/04/15 07:19:45;;;;;;;0.50;0.40;;;10.20;99.90;;;;;;5091222;28;20197;-75
2022/04/15 07:22:12;;;;;;;0.85;0.85;;;10.20;99.90;;;;;;5090426;28;20220;-74
2022/04/15 07:24:40;;;;;;;0.50;0.40;;;10.30;99.90;;;;;;5091703;28;20201;-75
2022/04/15 07:27:06;;;;;;;0.50;0.40;;;10.50;99.90;;;;;;5092343;28;20563;-76
2022/04/15 07:29:33;;;;;;;0.50;0.40;;;10.80;99.90;;;;;;5091116;28;20196;-75
2022/04/15 07:32:00;;;;;;;0.50;0.40;;;11.00;99.90;;;;;;5091876;28;20194;-75
2022/04/15 07:34:26;;;;;;;0.50;0.40;;;11.20;99.90;;;;;;5092005;28;20197;-75
2022/04/15 07:36:57;;;;;;;0.50;0.40;;;11.40;99.90;;;;;;5092106;28;20586;-75
2022/04/15 07:39:25;;;;;;;0.50;0.40;;;11.40;99.90;;;;;;5091126;28;20578;-75
2022/04/15 07:41:53;;;;;;;0.50;0.40;;;11.60;99.90;;;;;;5092120;28;20207;-76
2022/04/15 07:44:20;;;;;;;0.50;0.40;;;11.90;99.90;;;;;;5092183;28;20193;-76
2022/04/15 07:46:48;;;;;;;0.50;0.40;;;12.20;99.90;;;;;;5091401;28;20710;-75
2022/04/15 07:49:15;;;;;;;0.50;0.40;;;12.20;99.90;;;;;;5090917;28;20438;-74
2022/04/15 07:51:43;;;;;;;0.50;0.40;;;12.20;99.90;;;;;;5084412;28;20439;-75
2022/04/15 07:54:10;;;;;;;0.50;0.50;;;12.40;99.90;;;;;;5083334;28;20194;-75
2022/04/15 07:56:37;;;;;;;0.50;0.40;;;12.50;99.90;;;;;;5077848;28;20794;-74
2022/04/15 07:59:05;;;;;;;0.50;0.35;;;12.50;99.90;;;;;;5090954;28;20645;-74
2022/04/15 08:01:32;;;;;;;0.50;0.50;;;12.70;99.90;;;;;;5081485;28;20197;-75
2022/04/15 08:04:00;;;;;;;0.50;0.40;;;12.40;99.90;;;;;;5071119;28;20872;-75
2022/04/15 08:06:29;;;;;;;0.50;0.40;;;12.30;99.90;;;;;;5082752;28;20459;-75
2022/04/15 08:08:57;;;;;;;0.50;0.40;;;12.30;99.90;;;;;;5090371;28;20466;-75
2022/04/15 08:11:24;;;;;;;0.50;0.40;;;12.30;99.90;;;;;;5091189;28;20441;-75
2022/04/15 08:13:55;;;;;;;0.60;0.57;;;12.20;99.90;;;;;;5091104;28;20462;-74
2022/04/15 08:16:24;;;;;;;0.80;0.60;;;12.30;99.90;;;;;;5086267;28;20500;-76
2022/04/15 08:18:52;;;;;;;0.60;0.50;;;12.30;99.90;;;;;;5082889;22;20603;-77
2022/04/15 08:21:19;;;;;;;0.50;0.40;;;12.30;99.90;;;;;;5038361;28;20195;-78
2022/04/15 08:23:47;;;;;;;0.50;0.40;;;12.20;99.90;;;;;;5058693;28;20214;-78
2022/04/15 08:26:14;;;;;;;0.50;0.40;;;12.20;99.90;;;;;;5058854;28;20194;-78
2022/04/15 08:28:41;;;;;;;0.50;0.40;;;12.10;99.90;;;;;;5058335;28;20611;-79
2022/04/15 08:31:08;;;;;;;0.50;0.40;;;12.20;99.90;;;;;;5058407;28;20198;-79
2022/04/15 08:33:37;;;;;;;0.50;0.40;;;12.30;99.90;;;;;;5059260;28;20459;-78
2022/04/15 08:36:04;;;;;;;0.50;0.40;;;12.30;99.90;;;;;;5058919;28;20198;-78
2022/04/15 08:38:31;;;;;;;1.27;1.13;;;12.30;99.90;;;;;;5059021;28;20216;-77
2022/04/15 08:40:59;;;;;;;0.50;0.40;;;12.30;99.90;;;;;;5057626;28;20210;-79
2022/04/15 08:43:26;;;;;;;0.50;0.40;;;12.20;99.90;;;;;;5059019;28;20337;-80
2022/04/15 08:45:54;;;;;;;1.17;1.07;;;12.20;99.90;;;;;;5059678;28;20205;-76
2022/04/15 08:48:20;;;;;;;0.50;0.40;;;12.20;99.90;;;;;;5058820;28;20448;-79
2022/04/15 08:50:50;;;;;;;0.50;0.40;;;12.20;99.90;;;;;;5057887;28;20440;-77
2022/04/15 08:53:20;;;;;;;0.90;0.50;;;12.30;99.90;;;;;;5058526;28;20197;-78
2022/04/15 08:55:47;;;;;;;0.50;0.40;;;12.10;99.90;;;;;;5058863;28;20981;-77
2022/04/15 08:58:14;;;;;;;0.50;0.40;;;11.80;99.90;;;;;;5058933;28;20201;-78
2022/04/15 09:00:40;;;;;;;0.50;0.40;;;11.70;99.90;;;;;;5058022;28;20198;-78
2022/04/15 09:03:07;;;;;;;0.50;0.50;;;11.80;99.90;;;;;;5058759;28;20213;-78
2022/04/15 09:05:34;;;;;;;2.83;1.10;;;11.80;99.90;;;;;;5058127;28;20252;-77
2022/04/15 09:08:08;;;;;;;0.50;0.40;;;11.70;99.90;;;;;;5061988;28;20194;-76
2022/04/15 09:10:36;;;;;;;0.50;0.40;;;11.60;99.90;;;;;;5062474;28;20214;-76
2022/04/15 09:13:04;;;;;;;0.52;0.45;;;11.40;99.90;;;;;;5058095;28;20198;-78
2022/04/15 09:15:31;;;;;;;0.50;0.40;;;11.40;99.90;;;;;;5053881;28;20230;-79
2022/04/15 09:18:00;;;;;;;0.60;0.60;;;11.40;99.90;;;;;;5055328;28;20202;-79
2022/04/15 09:20:32;;;;;;;0.50;0.40;;;11.40;99.90;;;;;;5054535;28;20596;-79
2022/04/15 09:23:10;;;;;;;0.50;0.40;;;11.40;99.90;;;;;;5054946;28;20194;-79
2022/04/15 09:25:39;;;;;;;0.50;0.40;;;11.20;99.90;;;;;;5055418;28;20268;-78
2022/04/15 09:28:06;;;;;;;0.50;0.40;;;11.30;99.90;;;;;;5056071;28;20206;-76
2022/04/15 09:30:35;;;;;;;0.50;0.40;;;11.30;99.90;;;;;;5054593;28;20229;-78
2022/04/15 09:33:02;;;;;;;0.50;0.40;;;11.30;99.90;;;;;;5055287;28;20209;-77
2022/04/15 09:35:29;;;;;;;0.80;0.80;;;11.40;99.90;;;;;;5056675;28;20210;-79
2022/04/15 09:38:00;;;;;;;1.40;1.13;;;11.50;99.90;;;;;;5054446;28;20209;-78
2022/04/15 09:40:28;;;;;;;1.88;1.77;;;11.60;99.90;;;;;;5053858;28;20246;-78
2022/04/15 09:42:57;;;;;;;0.50;0.40;;;11.50;99.90;;;;;;5053512;28;20229;-78
2022/04/15 09:45:26;;;;;;;0.88;0.50;;;11.40;99.90;;;;;;5054511;28;20202;-75
2022/04/15 09:47:53;;;;;;;0.50;0.40;;;11.50;99.90;;;;;;5054736;28;20206;-78
2022/04/15 09:50:23;;;;;;;0.50;0.40;;;11.40;99.90;;;;;;5053667;28;20708;-78
2022/04/15 09:52:51;;;;;;;0.63;0.63;;;11.40;99.90;;;;;;5055135;28;20221;-77
2022/04/15 09:55:20;;;;;;;0.50;0.40;;;11.40;99.90;;;;;;5055285;28;20240;-77
2022/04/15 09:57:49;;;;;;;0.50;0.40;;;11.20;99.90;;;;;;5054847;28;20198;-78
2022/04/15 10:00:16;;;;;;;0.50;0.40;;;10.90;99.90;;;;;;5053919;28;20229;-75
2022/04/15 10:02:44;;;;;;;0.50;0.40;;;11.10;99.90;;;;;;5055070;28;20218;-78
2022/04/15 10:05:13;;;;;;;0.50;0.40;;;11.30;99.90;;;;;;5054725;28;20202;-79
2022/04/15 10:07:42;;;;;;;0.50;0.40;;;11.40;99.90;;;;;;5054021;28;20201;-78
2022/04/15 10:10:10;;;;;;;0.50;0.40;;;11.50;99.90;;;;;;5053609;28;20600;-78
2022/04/15 10:12:39;;;;;;;0.50;0.40;;;11.50;99.90;;;;;;5057607;28;20199;-79
2022/04/15 10:15:10;;;;;;;0.50;0.40;;;11.40;99.90;;;;;;5064298;28;20675;-80
2022/04/15 10:17:39;;;;;;;0.50;0.40;;;11.60;99.90;;;;;;5066618;28;20179;-80
2022/04/15 10:20:07;;;;;;;0.50;0.40;;;11.60;99.90;;;;;;5064198;28;20249;-79
2022/04/15 10:22:37;;;;;;;0.63;0.63;;;11.70;99.90;;;;;;5063207;28;20202;-80
2022/04/15 10:25:05;;;;;;;0.50;0.40;;;11.60;99.90;;;;;;5058631;28;20202;-79
2022/04/15 10:27:32;;;;;;;0.60;0.60;;;11.80;99.90;;;;;;5057635;28;20199;-78
2022/04/15 10:30:04;;;;;;;0.50;0.40;;;11.70;99.90;;;;;;5054284;28;20214;-78
2022/04/15 10:32:48;;;;;;;0.82;0.82;;;11.80;99.90;;;;;;5054429;28;20194;-78
2022/04/15 10:35:21;;;;;;;0.50;0.40;;;12.00;99.90;;;;;;5054222;28;20650;-78
2022/04/15 10:37:53;;;;;;;0.50;0.35;;;12.10;99.90;;;;;;5055202;28;20467;-77
2022/04/15 10:40:25;;;;;;;0.50;0.40;;;12.20;99.90;;;;;;5053921;28;20210;-78
2022/04/15 10:42:52;;;;;;;0.50;0.40;;;12.20;99.90;;;;;;5054907;28;20194;-78
2022/04/15 10:45:35;;;;;;;0.50;0.40;;;12.00;99.90;;;;;;5053282;28;20195;-78
2022/04/15 10:48:05;;;;;;;0.50;0.40;;;11.80;99.90;;;;;;5055102;28;20248;-78
2022/04/15 10:50:34;;;;;;;0.50;0.40;;;11.90;99.90;;;;;;5054037;28;20974;-78
2022/04/15 10:53:18;;;;;;;0.50;0.40;;;11.90;99.90;;;;;;5055382;28;20440;-79
2022/04/15 10:55:47;;;;;;;0.50;0.40;;;12.00;99.90;;;;;;5053452;28;20707;-77
2022/04/15 10:58:15;;;;;;;0.60;0.40;;;12.00;99.90;;;;;;5054749;28;20199;-76
2022/04/15 11:03:30;;;;;;;0.50;0.40;;;11.90;99.90;;;;;;5054214;28;20237;-80
2022/04/15 11:05:58;;;;;;;0.50;0.40;;;11.90;99.90;;;;;;5054901;28;20734;-78
2022/04/15 11:08:26;;;;;;;0.50;0.40;;;12.10;99.90;;;;;;5054521;28;20844;-79
2022/04/15 11:11:03;;;;;;;0.50;0.40;;;12.30;99.90;;;;;;5053455;28;20277;-78
2022/04/15 11:14:03;;;;;;;0.55;0.55;;;12.40;99.90;;;;;;5054132;28;20779;-77
2022/04/15 11:16:40;;;;;;;0.50;0.40;;;12.40;99.90;;;;;;5047095;28;20206;-77
2022/04/15 11:19:11;;;;;;;0.50;0.40;;;12.60;99.90;;;;;;5053062;28;20735;-79
2022/04/15 11:21:40;;;;;;;0.50;0.40;;;12.70;99.90;;;;;;5053562;28;20210;-79
2022/04/15 11:24:08;;;;;;;0.50;0.40;;;12.80;99.90;;;;;;5054073;28;20477;-77
2022/04/15 11:26:37;;;;;;;0.70;0.65;;;12.90;99.90;;;;;;5053915;28;20195;-77
2022/04/15 11:29:06;;;;;;;0.93;0.93;;;12.80;99.90;;;;;;5053780;28;20219;-76
2022/04/15 11:31:35;;;;;;;0.50;0.40;;;12.90;99.90;;;;;;5054090;28;20289;-76
2022/04/15 11:34:06;;;;;;;0.50;0.40;;;12.90;99.90;;;;;;5054375;28;20232;-76
2022/04/15 11:36:36;;;;;;;0.50;0.40;;;13.10;99.90;;;;;;5054313;28;20704;-75
2022/04/15 11:39:05;;;;;;;0.50;0.40;;;13.10;99.90;;;;;;5054007;28;20453;-76
2022/04/15 11:41:33;;;;;;;0.50;0.40;;;13.20;99.90;;;;;;5055021;28;20452;-76
2022/04/15 11:44:01;;;;;;;0.50;0.40;;;13.40;99.90;;;;;;5055900;28;20492;-78
2022/04/15 11:46:39;;;;;;;0.80;0.60;;;13.60;99.90;;;;;;5055675;28;20441;-77
2022/04/15 11:49:12;;;;;;;0.50;0.40;;;13.60;99.90;;;;;;5055384;28;20519;-77
2022/04/15 11:51:43;;;;;;;0.50;0.40;;;13.40;99.90;;;;;;5055669;28;20421;-76
2022/04/15 11:54:09;;;;;;;0.50;0.40;;;13.50;99.90;;;;;;5055578;28;20415;-77
2022/04/15 11:56:36;;;;;;;0.50;0.40;;;13.40;99.90;;;;;;5055231;28;20459;-78
2022/04/15 11:59:04;;;;;;;0.50;0.40;;;13.60;99.90;;;;;;5054496;28;20458;-75
2022/04/15 12:01:32;;;;;;;0.50;0.40;;;13.60;99.90;;;;;;5055289;28;20461;-78
2022/04/15 12:03:59;;;;;;;0.50;0.47;;;13.40;99.90;;;;;;5054090;28;20487;-78
2022/04/15 12:06:26;;;;;;;0.70;0.40;;;13.40;99.90;;;;;;5055067;28;21015;-75
2022/04/15 12:08:56;;;;;;;0.50;0.30;;;13.30;99.90;;;;;;5054453;28;20468;-77
2022/04/15 12:11:24;;;;;;;0.50;0.40;;;13.50;99.90;;;;;;5054246;28;20448;-76
2022/04/15 12:13:58;;;;;;;0.50;0.40;;;13.70;99.90;;;;;;5054877;28;20792;-76
2022/04/15 12:16:25;;;;;;;0.50;0.40;;;13.90;99.90;;;;;;5055160;28;20444;-79
2022/04/15 12:18:53;;;;;;;0.53;0.50;;;14.10;99.90;;;;;;5051395;28;20469;-78
2022/04/15 12:21:21;;;;;;;0.50;0.40;;;14.50;99.90;;;;;;5051678;28;20544;-77
2022/04/15 12:24:06;;;;;;;0.50;0.40;;;14.80;99.90;;;;;;5052030;28;20474;-78
2022/04/15 12:26:46;;;;;;;0.50;0.40;;;14.70;99.90;;;;;;5049379;28;20445;-78
2022/04/15 12:32:19;;;;;;;0.90;0.90;;;14.90;99.90;;;;;;5051673;28;20547;-78
2022/04/15 12:34:47;;;;;;;0.50;0.30;;;15.00;99.90;;;;;;5051243;28;20449;-79
2022/04/15 12:37:37;;;;;;;0.50;0.40;;;14.90;99.90;;;;;;5052416;28;20519;-78
2022/04/15 12:40:08;;;;;;;0.50;0.30;;;15.30;99.90;;;;;;5052597;28;20462;-77
2022/04/15 12:42:37;;;;;;;0.50;0.33;;;15.40;99.90;;;;;;5053254;28;20938;-79
2022/04/15 12:45:07;;;;;;;0.50;0.40;;;15.60;99.90;;;;;;5053509;28;20519;-77
2022/04/15 12:47:34;;;;;;;0.80;0.80;;;15.80;99.90;;;;;;5053376;28;20420;-76
2022/04/15 12:50:19;;;;;;;0.50;0.40;;;15.60;99.90;;;;;;5051108;28;20466;-77
2022/04/15 12:52:46;;;;;;;0.60;0.60;;;15.80;99.90;;;;;;5052569;28;20441;-79
2022/04/15 12:55:23;;;;;;;0.60;0.50;;;15.80;99.90;;;;;;5052683;28;20441;-77
2022/04/15 12:57:50;;;;;;;0.50;0.40;;;15.70;99.90;;;;;;5052415;28;20443;-77
2022/04/15 13:00:17;;;;;;;0.50;0.30;;;15.70;99.90;;;;;;5050874;28;20454;-75
2022/04/15 13:02:44;;;;;;;0.50;0.33;;;15.40;99.90;;;;;;5052195;28;20445;-78